Welcome to our Virtual Airline
Sign-in:

Flight MFC36841

  • Submitted By: Thomas Menzel
  • Departure Airport: Port Williams SPB (KPR)
  • Arrival Airport: Kitoi Bay SPB (KKB)
  • Aircraft: BARON B58 (N58BMM)
  • Flight Time: 00.24.31
  • Date Submitted: 19/05/23
  • Route: NO STOPS
  • Status: Accepted
Flight Details
Gross Revenue:
(3 load / $ 42.00 per unit
$ 126.00
Fuel Cost:
(30.8443 fuel used @ 5.1 / unit)
$ 157.31

Additional Log Information:

View Log

FS[07:38] ----- Flight Opened -----
FS[07:38] Cigar Box - 1.1.4.0
FS[07:38] FS: Prepar3D V4
FS[07:38] FSUIPC: v5.14
FS[07:38] Flight Number: MFC36841
FS[07:38] FS Aircraft: Soloy MK2 USCG Float
FS[07:38] FS Model: C206
FS[07:38] FS Type: Cessna
FS[07:38] Departure: KPR
FS[07:38] Arrival: KKB
FS[07:38] Flight Level: 3500
FS[07:38] Flight Type: H
FS[07:38] Passengers: 3
FS[07:38] FOB: 515 lbs
FS[07:38] Gate: n/a
FS[07:38] NOTE: Parking Brake Ignored
FS[07:38] Crash Detection: Disabled
FS[07:38] Engines: 1 Turboprop
FS[07:38] NOTE: Boarding has started
FS[07:38] Parking Brake: Engaged
FS[07:38] Landing Gear: Retracted
FS[07:38] Engine 1: Started
FS[07:38] Light Data: Navigation ON
FS[07:38] Light Data: Beacon ON
FS[07:38] Light Data: Taxi lights ON
FS[07:38] Light Data: Strobe lights ON
FS[07:38] Main Door Closed
FS[07:38] COM1: 128.30
FS[07:38] COM2: 127.80
FS[07:38] Transponder: 1200
FS[07:38] NAV1: 113.70
FS[07:38] NAV2: 110.60
FS[07:38] ADF1: 284.0
FS[07:38] ADF2: 240.0
FS[07:38] Navigation Mode: GPS
FS[07:38] Navigation Mode: GPS
FS[07:38] NOTE: Pushing back
FS[07:38] Parking Brake: Released
FS[07:38] NOTE: Taxi started
FS[07:39] Flaps: Position 1
FS[07:39] Light Data: Landing lights ON
FS[07:39] Light Data: Taxi lights OFF
FS[07:39] NOTE: ----- TAKE OFF -----
FS[07:39] GS: 73 knots
FS[07:39] TAS: 78 knots
FS[07:39] IAS: 80 knots
FS[07:39] VS: 7 fpm
FS[07:39] FOB: 512 lbs
FS[07:39] Heading: 187°
FS[07:39] Pitch: 2°
FS[07:39] Bank: 0°
FS[07:39] Aircraft Weight: 3791.13 lbs
FS[07:39] Nearest Airport: KPR
FS[07:39] Distance: 0.39 miles
FS[07:39] Runway: ???
FS[07:39] Ground Surface: Water
FS[07:39] Ground Condition: Normal
FS[07:39] NOTE: Weather Report
FS[07:39] Wind Heading: 216°
FS[07:39] Wind Speed: 5 knots
FS[07:39] OAT: 3° C
FS[07:39] TAT: 4° C
FS[07:39] Precipitation: None
FS[07:39] Dew Point: -1° C
FS[07:39] Visibility: 23 miles
FS[07:39] METAR: KPRB 231653Z AUTO 21011KT 10SM OVC018 14/11 A2987 RMK AO2 SLP111 T01440106KPRC 231653Z 19010G19KT 10SM FEW020 BKN026 OVC095 06/02 A2995 RMK AO2 SLP113 T00610017KPRG 231715Z AUTO 24010KT 10SM BKN022 OVC031 26/22 A3010 RMK AO2 T02560218KPRN 231656Z AUTO VRB04KT 10SM FEW038 SCT048 33/19 A3021 RMK AO2 SLP225 T03280189KPRO 231715Z AUTO 00000KT 10SM SCT120 18/09 A3011 RMK AO2 T01780089KPRS 231715Z AUTO 23014G22KT 10SM CLR 35/M07 A2988 RMK AO2 T03451075KPRX 231656Z AUTO 16013KT 10SM BKN033 BKN040 28/22 A3007 RMK AO2 SLP188 T02780217 $
FS[07:40] NOTE: Climb started
FS[07:40] Autopilot: Engaged
FS[07:40] AGL: 68 ft
FS[07:40] AMSL: 68 ft
FS[07:40] Flaps: Position 0
FS[07:40] GS: 97 knots
FS[07:40] TAS: 101 knots
FS[07:40] IAS: 103 knots
FS[07:40] VS: 974 fpm
FS[07:40] View Mode: Spot Plane
FS[07:40] Light Data: Landing lights OFF
FS[07:40] AGL: 203 ft
FS[07:40] AMSL: 203 ft
FS[07:57] Autopilot: Disengaged
FS[07:57] AGL: 1529 ft
FS[07:57] AMSL: 1696 ft
FS[07:58] Autopilot: Engaged
FS[07:58] AGL: 895 ft
FS[07:58] AMSL: 895 ft
FS[07:58] Autopilot: Disengaged
FS[07:58] AGL: 544 ft
FS[07:58] AMSL: 544 ft
FS[07:58] Light Data: Landing lights ON
FS[07:58] AGL: 390 ft
FS[07:58] AMSL: 390 ft
FS[07:59] Flaps: Position 1
FS[07:59] GS: 99 knots
FS[07:59] TAS: 106 knots
FS[07:59] IAS: 107 knots
FS[07:59] VS: 131 fpm
FS[08:00] Flaps: Position 2
FS[08:00] GS: 89 knots
FS[08:00] TAS: 84 knots
FS[08:00] IAS: 85 knots
FS[08:00] VS: -2056 fpm
FS[08:00] NOTE: ----- LANDED -----
FS[08:00] Landing Rate: -318.34 fpm
FS[08:00] GS: 68 knots
FS[08:00] TAS: 61 knots
FS[08:00] IAS: 62 knots
FS[08:00] VS: -320 fpm
FS[08:00] FOB: 449 lbs
FS[08:00] Heading: 57°
FS[08:00] Pitch: 2°
FS[08:00] Bank: 0°
FS[08:00] Aircraft Weight: 3729.02 lbs
FS[08:00] Nearest Airport: KKB
FS[08:00] Distance: 0.30 miles
FS[08:00] Runway: ???
FS[08:00] Ground Surface: Water
FS[08:00] Ground Condition: Normal
FS[08:00] NOTE: Weather Report
FS[08:00] Wind Heading: 209°
FS[08:00] Wind Speed: 8 knots
FS[08:00] OAT: 4° C
FS[08:00] TAT: 5° C
FS[08:00] Precipitation: None
FS[08:00] Dew Point: -1° C
FS[08:00] Visibility: 23 miles
FS[08:00] METAR: No METAR available for KKB.
FS[08:00] View Mode: Virtual Cockpit
FS[08:00] NOTE: Taxi started
FS[08:00] Flaps: Position 0
FS[08:02] Reverse Thrust Started: 9 knots
FS[08:02] Reverse Thrust Stopped: 0 knots
FS[08:03] Gate: n/a
FS[08:03] NOTE: Flight Completed
FS[08:03] FS Aircraft: Soloy MK2 USCG Float
FS[08:03] FS Model: C206
FS[08:03] FS Type: Cessna
FS[08:03] FOB: 447 lbs
FS[08:03] Fuel Used: 68 lbs
FS[08:03] Flight Time: 00:24:31
FS[08:03] Flight Time (Dawn): 00:00:00
FS[08:03] Flight Time (Day): 00:24:31
FS[08:03] Flight Time (Dusk): 00:00:00
FS[08:03] Flight Time (Night): 00:00:00
FS[08:03] Total Landings: 1
FS[08:03] MaxSim Rate: 0x
FS[08:03] Cigar Box - 1.1.4.0
FS[08:03] ----- Flight Closed -----

Route Map